Medicine Hat Airport, Alberta

Past 24 Hour Conditions

Date / Time
(MDT)
Conditions Temp
(°F)
Humidity
(%)
Dew Point
(°F)
Wind
(mph)
Pressure
(inches)
Visibility
(miles)
26 April 2015
23:00 Clear 37 76 30 S 7 30.3 10
22:00 Clear 38 73 30 SSE 7 30.3 10
21:00 Mostly Cloudy 42 70 33 SE 7 30.3 15
20:00 Cloudy 47 56 33 S 4 30.3 15
19:00 Mostly Cloudy 48   54 32 SSE 5 30.2 15
18:00 Mostly Cloudy 48   54 32 S 3 30.2 15
17:00 Mostly Cloudy 48   53 32 SW 6 30.2 15
16:00 Mostly Cloudy 47 57 32 SSW 9 30.2 15
15:00 Mostly Cloudy 46 57 32 WNW 5 30.2 15
14:00 Cloudy 43 64 32 WNW 7 30.2 15
13:00 Cloudy 41 70 32 WSW 5 30.3 15
12:00 Cloudy 40 74 32 NW 7 30.3 15
11:00 Cloudy 37 80 32 WNW 7 30.3 10
10:00 Cloudy 36 86 32 WNW 9 30.2 10
9:00 Cloudy 35 87 31 NNW 10 30.2 10
8:00 Cloudy 33 93 32 NW 10 30.2 10
7:00 Cloudy 33 93 31 NW 8 30.2 10
6:00 Cloudy 33 94 31 WNW 10 30.2 10
5:00 Cloudy 33 93 31 WNW 10 30.2 10
4:00 Cloudy 33 94 31 WNW 10 30.1 10
3:00 Cloudy 33 94 31 WNW 9 30.1 10
2:00 Cloudy 33 97 32 WNW 13 30.1 8
1:00 Cloudy 32   96 31 WNW 11 30.1 7
00:00 Cloudy 33 96 32 WNW 10 30.1 8
25 April 2015
23:00 Cloudy 33 96 32 NW 9 30.1 7
N/A Not available
↑ Highest temperature
↓ Lowest temperature

If you require additional historical weather information, please visit Climate Data Online.

What we are doing

Date modified: